sensor_id;sensor_type;location;lat;lon;timestamp;temperature;humidity
3402;DHT22;1714;49.756;8.610;2023-07-30T00:03:44;20.60;1.00
3402;DHT22;1714;49.756;8.610;2023-07-30T00:14:19;20.50;1.00
3402;DHT22;1714;49.756;8.610;2023-07-30T00:24:54;20.30;1.00
3402;DHT22;1714;49.756;8.610;2023-07-30T00:35:29;20.30;1.00
3402;DHT22;1714;49.756;8.610;2023-07-30T00:46:05;20.20;1.00
3402;DHT22;1714;49.756;8.610;2023-07-30T00:56:45;19.90;1.00
3402;DHT22;1714;49.756;8.610;2023-07-30T01:07:24;19.90;1.00
3402;DHT22;1714;49.756;8.610;2023-07-30T01:17:59;19.80;1.00
3402;DHT22;1714;49.756;8.610;2023-07-30T01:28:37;19.70;1.00
3402;DHT22;1714;49.756;8.610;2023-07-30T01:39:15;19.80;1.00
3402;DHT22;1714;49.756;8.610;2023-07-30T01:49:51;19.60;1.00
3402;DHT22;1714;49.756;8.610;2023-07-30T02:00:26;19.80;1.00
3402;DHT22;1714;49.756;8.610;2023-07-30T02:11:10;19.50;1.00
3402;DHT22;1714;49.756;8.610;2023-07-30T02:21:46;19.50;1.00
3402;DHT22;1714;49.756;8.610;2023-07-30T02:32:20;19.40;1.00
3402;DHT22;1714;49.756;8.610;2023-07-30T02:42:55;19.60;1.00
3402;DHT22;1714;49.756;8.610;2023-07-30T02:53:30;19.60;1.00
3402;DHT22;1714;49.756;8.610;2023-07-30T03:04:05;19.60;1.00
3402;DHT22;1714;49.756;8.610;2023-07-30T03:14:40;19.60;1.00
3402;DHT22;1714;49.756;8.610;2023-07-30T03:25:16;19.60;1.00
3402;DHT22;1714;49.756;8.610;2023-07-30T03:35:50;19.50;1.00
3402;DHT22;1714;49.756;8.610;2023-07-30T03:46:25;19.50;1.00
3402;DHT22;1714;49.756;8.610;2023-07-30T03:57:00;19.50;1.00
3402;DHT22;1714;49.756;8.610;2023-07-30T04:07:35;19.50;1.00
3402;DHT22;1714;49.756;8.610;2023-07-30T04:18:13;19.50;1.00
3402;DHT22;1714;49.756;8.610;2023-07-30T04:28:48;19.50;1.00
3402;DHT22;1714;49.756;8.610;2023-07-30T04:39:23;19.50;1.00
3402;DHT22;1714;49.756;8.610;2023-07-30T04:49:59;19.40;1.00
3402;DHT22;1714;49.756;8.610;2023-07-30T05:00:34;19.50;1.00
3402;DHT22;1714;49.756;8.610;2023-07-30T05:11:08;19.50;1.00
3402;DHT22;1714;49.756;8.610;2023-07-30T05:21:44;19.70;1.00
3402;DHT22;1714;49.756;8.610;2023-07-30T05:32:19;19.70;1.00
3402;DHT22;1714;49.756;8.610;2023-07-30T05:42:54;19.70;1.00
3402;DHT22;1714;49.756;8.610;2023-07-30T05:53:28;19.70;1.00
3402;DHT22;1714;49.756;8.610;2023-07-30T06:04:04;19.70;1.00
3402;DHT22;1714;49.756;8.610;2023-07-30T06:14:39;20.00;1.00
3402;DHT22;1714;49.756;8.610;2023-07-30T06:25:14;20.20;1.00
3402;DHT22;1714;49.756;8.610;2023-07-30T06:35:48;20.10;1.00
3402;DHT22;1714;49.756;8.610;2023-07-30T06:46:23;20.50;1.00
3402;DHT22;1714;49.756;8.610;2023-07-30T06:56:58;20.80;1.00
3402;DHT22;1714;49.756;8.610;2023-07-30T07:07:33;21.00;1.00
3402;DHT22;1714;49.756;8.610;2023-07-30T07:18:08;21.40;1.00
3402;DHT22;1714;49.756;8.610;2023-07-30T07:28:43;21.50;1.00
3402;DHT22;1714;49.756;8.610;2023-07-30T07:39:18;20.90;1.00
3402;DHT22;1714;49.756;8.610;2023-07-30T07:49:53;20.60;1.00
3402;DHT22;1714;49.756;8.610;2023-07-30T08:00:28;20.90;1.00
3402;DHT22;1714;49.756;8.610;2023-07-30T08:11:08;20.60;1.00
3402;DHT22;1714;49.756;8.610;2023-07-30T08:21:43;20.80;1.00
3402;DHT22;1714;49.756;8.610;2023-07-30T08:32:18;21.40;1.00
3402;DHT22;1714;49.756;8.610;2023-07-30T08:42:53;22.10;1.00
3402;DHT22;1714;49.756;8.610;2023-07-30T08:53:29;22.50;1.00
3402;DHT22;1714;49.756;8.610;2023-07-30T09:04:05;22.20;1.00
3402;DHT22;1714;49.756;8.610;2023-07-30T09:14:40;22.70;1.00
3402;DHT22;1714;49.756;8.610;2023-07-30T09:25:19;23.30;1.00
3402;DHT22;1714;49.756;8.610;2023-07-30T09:35:55;23.20;1.00
3402;DHT22;1714;49.756;8.610;2023-07-30T09:46:30;22.90;1.00
3402;DHT22;1714;49.756;8.610;2023-07-30T09:57:05;21.80;1.00
3402;DHT22;1714;49.756;8.610;2023-07-30T10:07:44;22.00;1.00
3402;DHT22;1714;49.756;8.610;2023-07-30T10:18:21;22.60;1.00
3402;DHT22;1714;49.756;8.610;2023-07-30T10:29:14;23.00;1.00
3402;DHT22;1714;49.756;8.610;2023-07-30T10:39:49;23.70;1.00
3402;DHT22;1714;49.756;8.610;2023-07-30T10:50:24;23.30;1.00
3402;DHT22;1714;49.756;8.610;2023-07-30T11:01:05;24.10;1.00
3402;DHT22;1714;49.756;8.610;2023-07-30T11:11:40;24.40;1.00
3402;DHT22;1714;49.756;8.610;2023-07-30T11:22:30;24.50;1.00
3402;DHT22;1714;49.756;8.610;2023-07-30T11:33:07;25.40;1.00
3402;DHT22;1714;49.756;8.610;2023-07-30T11:43:44;24.20;1.00
3402;DHT22;1714;49.756;8.610;2023-07-30T11:54:20;23.80;1.00
3402;DHT22;1714;49.756;8.610;2023-07-30T12:04:56;22.90;1.00
3402;DHT22;1714;49.756;8.610;2023-07-30T12:15:52;22.90;1.00
3402;DHT22;1714;49.756;8.610;2023-07-30T12:26:27;23.30;1.00
3402;DHT22;1714;49.756;8.610;2023-07-30T12:37:02;24.10;1.00
3402;DHT22;1714;49.756;8.610;2023-07-30T12:47:37;23.60;1.00
3402;DHT22;1714;49.756;8.610;2023-07-30T12:58:12;23.20;1.00
3402;DHT22;1714;49.756;8.610;2023-07-30T13:08:47;23.90;1.00
3402;DHT22;1714;49.756;8.610;2023-07-30T13:19:22;23.40;1.00
3402;DHT22;1714;49.756;8.610;2023-07-30T13:29:57;23.30;1.00
3402;DHT22;1714;49.756;8.610;2023-07-30T13:40:32;23.20;1.00
3402;DHT22;1714;49.756;8.610;2023-07-30T13:51:07;22.90;1.00
3402;DHT22;1714;49.756;8.610;2023-07-30T14:01:43;23.10;1.00
3402;DHT22;1714;49.756;8.610;2023-07-30T14:12:18;23.10;1.00
3402;DHT22;1714;49.756;8.610;2023-07-30T14:22:53;23.00;1.00
3402;DHT22;1714;49.756;8.610;2023-07-30T14:33:29;22.80;1.00
3402;DHT22;1714;49.756;8.610;2023-07-30T14:44:05;23.20;1.00
3402;DHT22;1714;49.756;8.610;2023-07-30T14:54:39;23.20;1.00
3402;DHT22;1714;49.756;8.610;2023-07-30T15:05:14;24.30;1.00
3402;DHT22;1714;49.756;8.610;2023-07-30T15:15:49;23.30;1.00
3402;DHT22;1714;49.756;8.610;2023-07-30T15:26:24;23.50;1.00
3402;DHT22;1714;49.756;8.610;2023-07-30T15:36:59;24.30;1.00
3402;DHT22;1714;49.756;8.610;2023-07-30T15:47:36;24.80;1.00
3402;DHT22;1714;49.756;8.610;2023-07-30T15:58:11;23.80;1.00
3402;DHT22;1714;49.756;8.610;2023-07-30T16:08:46;24.30;1.00
3402;DHT22;1714;49.756;8.610;2023-07-30T16:19:21;24.20;1.00
3402;DHT22;1714;49.756;8.610;2023-07-30T16:29:57;23.60;1.00
3402;DHT22;1714;49.756;8.610;2023-07-30T16:40:31;23.80;1.00
3402;DHT22;1714;49.756;8.610;2023-07-30T16:51:06;24.00;1.00
3402;DHT22;1714;49.756;8.610;2023-07-30T17:01:41;23.30;1.00
3402;DHT22;1714;49.756;8.610;2023-07-30T17:12:17;23.20;1.00
3402;DHT22;1714;49.756;8.610;2023-07-30T17:22:52;22.80;1.00
3402;DHT22;1714;49.756;8.610;2023-07-30T17:33:27;22.50;1.00
3402;DHT22;1714;49.756;8.610;2023-07-30T17:44:03;22.20;1.00
3402;DHT22;1714;49.756;8.610;2023-07-30T17:54:37;22.10;1.00
3402;DHT22;1714;49.756;8.610;2023-07-30T18:05:12;21.90;1.00
3402;DHT22;1714;49.756;8.610;2023-07-30T18:15:54;21.80;1.00
3402;DHT22;1714;49.756;8.610;2023-07-30T18:26:30;21.60;1.00
3402;DHT22;1714;49.756;8.610;2023-07-30T18:37:05;21.40;1.00
3402;DHT22;1714;49.756;8.610;2023-07-30T18:47:40;21.10;1.00
3402;DHT22;1714;49.756;8.610;2023-07-30T18:58:16;20.90;1.00
3402;DHT22;1714;49.756;8.610;2023-07-30T19:08:51;20.80;1.00
3402;DHT22;1714;49.756;8.610;2023-07-30T19:19:26;20.60;1.00
3402;DHT22;1714;49.756;8.610;2023-07-30T19:30:03;20.50;1.00
3402;DHT22;1714;49.756;8.610;2023-07-30T19:40:38;20.30;1.00
3402;DHT22;1714;49.756;8.610;2023-07-30T19:51:13;20.20;1.00
3402;DHT22;1714;49.756;8.610;2023-07-30T20:01:48;20.00;1.00
3402;DHT22;1714;49.756;8.610;2023-07-30T20:12:23;20.00;1.00
3402;DHT22;1714;49.756;8.610;2023-07-30T20:22:59;19.90;1.00
3402;DHT22;1714;49.756;8.610;2023-07-30T20:33:35;19.80;1.00
3402;DHT22;1714;49.756;8.610;2023-07-30T20:44:10;19.70;1.00
3402;DHT22;1714;49.756;8.610;2023-07-30T20:54:45;19.60;1.00
3402;DHT22;1714;49.756;8.610;2023-07-30T21:05:20;19.50;1.00
3402;DHT22;1714;49.756;8.610;2023-07-30T21:15:55;19.50;1.00
3402;DHT22;1714;49.756;8.610;2023-07-30T21:26:30;19.40;1.00
3402;DHT22;1714;49.756;8.610;2023-07-30T21:37:05;19.20;1.00
3402;DHT22;1714;49.756;8.610;2023-07-30T21:47:40;19.30;1.00
3402;DHT22;1714;49.756;8.610;2023-07-30T21:58:16;19.30;1.00
3402;DHT22;1714;49.756;8.610;2023-07-30T22:08:51;19.20;1.00
3402;DHT22;1714;49.756;8.610;2023-07-30T22:19:26;19.30;1.00
3402;DHT22;1714;49.756;8.610;2023-07-30T22:30:01;19.30;1.00
3402;DHT22;1714;49.756;8.610;2023-07-30T22:40:39;19.30;1.00
3402;DHT22;1714;49.756;8.610;2023-07-30T22:51:14;19.10;1.00
3402;DHT22;1714;49.756;8.610;2023-07-30T23:01:49;19.20;1.00
3402;DHT22;1714;49.756;8.610;2023-07-30T23:12:24;19.20;1.00
3402;DHT22;1714;49.756;8.610;2023-07-30T23:22:59;19.20;1.00
3402;DHT22;1714;49.756;8.610;2023-07-30T23:33:34;19.20;1.00
3402;DHT22;1714;49.756;8.610;2023-07-30T23:44:09;19.10;1.00
3402;DHT22;1714;49.756;8.610;2023-07-30T23:54:44;18.90;1.00
